createdAt,value
2023-03-04T00:00:53.970Z,101174.19
2023-03-04T00:03:21.391Z,101169.06
2023-03-04T00:05:48.818Z,101173.19
2023-03-04T00:08:16.098Z,101172.31
2023-03-04T00:10:43.683Z,101173.56
2023-03-04T00:13:10.956Z,101167.03
2023-03-04T00:15:38.264Z,101170.03
2023-03-04T00:18:05.623Z,101169.56
2023-03-04T00:20:32.947Z,101175.53
2023-03-04T00:23:00.985Z,101172.31
2023-03-04T00:25:28.387Z,101165.56
2023-03-04T00:27:55.713Z,101161.31
2023-03-04T00:30:23.055Z,101165.84
2023-03-04T00:32:50.386Z,101154.22
2023-03-04T00:35:17.835Z,101167.69
2023-03-04T00:37:45.133Z,101164.19
2023-03-04T00:40:12.881Z,101177.91
2023-03-04T00:42:42.922Z,101167.78
2023-03-04T00:45:10.670Z,101161.25
2023-03-04T00:47:38.014Z,101162.72
2023-03-04T00:50:05.867Z,101166.88
2023-03-04T00:52:33.381Z,101165.59
2023-03-04T00:55:00.700Z,101165.84
2023-03-04T00:57:28.898Z,101161.69
2023-03-04T00:59:56.250Z,101163.88
2023-03-04T01:02:24.960Z,101165.44
2023-03-04T01:04:53.694Z,101166.53
2023-03-04T01:07:22.360Z,101155.75
2023-03-04T01:09:50.677Z,101158.16
2023-03-04T01:12:18.950Z,101155.59
2023-03-04T01:14:46.281Z,101149.66
2023-03-04T01:17:13.900Z,101151.03
2023-03-04T01:19:42.437Z,101146.13
2023-03-04T01:22:10.914Z,101146.88
2023-03-04T01:24:38.330Z,101143.59
2023-03-04T01:27:06.991Z,101142.56
2023-03-04T01:29:34.384Z,101146.19
2023-03-04T01:32:03.365Z,101136.53
2023-03-04T01:34:30.884Z,101136.75
2023-03-04T01:36:59.308Z,101136.59
2023-03-04T01:39:26.619Z,101139.59
2023-03-04T01:41:54.185Z,101137.94
2023-03-04T01:44:21.948Z,101136.53
2023-03-04T01:46:53.701Z,101139.78
2023-03-04T01:49:22.608Z,101139.47
2023-03-04T01:51:53.733Z,101137.25
2023-03-04T01:54:22.537Z,101126.44
2023-03-04T01:56:52.738Z,101122.34
2023-03-04T01:59:26.125Z,101134.41
2023-03-04T02:01:55.924Z,101126.81
2023-03-04T02:04:30.631Z,101127.78
2023-03-04T02:06:59.161Z,101124.03
2023-03-04T02:09:29.978Z,101121.53
2023-03-04T02:11:57.778Z,101114.94
2023-03-04T02:14:27.903Z,101118.03
2023-03-04T02:16:55.406Z,101114.06
2023-03-04T02:19:46.129Z,101111.22
2023-03-04T02:22:13.483Z,101100.59
2023-03-04T02:24:47.818Z,101109.22
2023-03-04T02:27:15.422Z,101113.03
2023-03-04T02:29:42.824Z,101107.94
2023-03-04T02:32:13.130Z,101113.84
2023-03-04T02:34:51.107Z,101110.72
2023-03-04T02:37:20.079Z,101110.09
2023-03-04T02:39:49.775Z,101104.41
2023-03-04T02:42:18.435Z,101105.00
2023-03-04T02:44:49.308Z,101102.22
2023-03-04T02:47:22.252Z,101102.94
2023-03-04T02:49:50.164Z,101097.53
2023-03-04T02:52:20.445Z,101099.81
2023-03-04T02:54:50.797Z,101093.84
2023-03-04T02:57:18.638Z,101091.50
2023-03-04T02:59:51.566Z,101089.03
2023-03-04T03:02:22.454Z,101086.19
2023-03-04T03:04:49.920Z,101083.66
2023-03-04T03:07:19.892Z,101091.66
2023-03-04T03:09:47.305Z,101084.25
2023-03-04T03:12:14.596Z,101084.50
2023-03-04T03:14:42.077Z,101082.34
2023-03-04T03:17:12.021Z,101074.59
2023-03-04T03:19:39.304Z,101082.66
2023-03-04T03:22:10.941Z,101078.28
2023-03-04T03:24:38.288Z,101084.84
2023-03-04T03:27:06.043Z,101083.00
2023-03-04T03:29:33.900Z,101083.38
2023-03-04T03:32:01.161Z,101076.72
2023-03-04T03:34:28.835Z,101072.16
2023-03-04T03:36:56.170Z,101073.84
2023-03-04T03:39:23.581Z,101073.84
2023-03-04T03:41:50.873Z,101074.19
2023-03-04T03:44:18.160Z,101077.16
2023-03-04T03:46:46.789Z,101077.59
2023-03-04T03:49:14.109Z,101073.03
2023-03-04T03:51:41.361Z,101080.94
2023-03-04T03:54:09.136Z,101079.09
2023-03-04T03:56:36.383Z,101075.88
2023-03-04T03:59:03.837Z,101078.13
2023-03-04T04:01:31.129Z,101072.19
2023-03-04T04:03:58.429Z,101070.56
2023-03-04T04:06:26.415Z,101069.53
2023-03-04T04:08:53.736Z,101077.44
2023-03-04T04:11:21.376Z,101071.69
2023-03-04T04:13:48.788Z,101075.59
2023-03-04T04:16:16.224Z,101075.53
2023-03-04T04:18:43.609Z,101077.16
2023-03-04T04:21:11.025Z,101076.81
2023-03-04T04:23:38.382Z,101077.25
2023-03-04T04:26:05.684Z,101081.31
2023-03-04T04:28:33.701Z,101081.13
2023-03-04T04:31:01.053Z,101079.22
2023-03-04T04:33:28.436Z,101090.50
2023-03-04T04:35:55.802Z,101090.03
2023-03-04T04:38:24.756Z,101091.19
2023-03-04T04:40:52.008Z,101088.56
2023-03-04T04:43:19.318Z,101090.53
2023-03-04T04:45:46.674Z,101093.56
2023-03-04T04:48:14.062Z,101096.81
2023-03-04T04:50:41.346Z,101093.91
2023-03-04T04:53:10.372Z,101097.44
2023-03-04T04:55:37.737Z,101093.41
2023-03-04T04:58:07.332Z,101102.94
2023-03-04T05:00:34.648Z,101099.66
2023-03-04T05:03:02.073Z,101099.59
2023-03-04T05:05:29.408Z,101101.28
2023-03-04T05:07:59.105Z,101106.63
2023-03-04T05:10:26.418Z,101106.34
2023-03-04T05:12:53.805Z,101103.59
2023-03-04T05:15:21.180Z,101100.50
2023-03-04T05:17:48.603Z,101099.16
2023-03-04T05:20:16.011Z,101108.59
2023-03-04T05:22:43.357Z,101104.34
2023-03-04T05:25:12.086Z,101090.06
2023-03-04T05:27:39.524Z,101106.56
2023-03-04T05:30:07.389Z,101108.25
2023-03-04T05:32:34.793Z,101095.84
2023-03-04T05:35:02.161Z,101108.75
2023-03-04T05:37:29.496Z,101099.03
2023-03-04T05:39:56.793Z,101108.22
2023-03-04T05:42:24.131Z,101108.25
2023-03-04T05:44:54.033Z,101096.59
2023-03-04T05:47:21.543Z,101103.06
2023-03-04T05:49:48.851Z,101096.81
2023-03-04T05:52:16.231Z,101103.28
2023-03-04T05:54:43.466Z,101100.31
2023-03-04T05:57:10.762Z,101104.94
2023-03-04T05:59:38.120Z,101112.84
2023-03-04T06:02:06.245Z,101123.13
2023-03-04T06:04:33.722Z,101116.94
2023-03-04T06:07:01.031Z,101113.69
2023-03-04T06:09:28.300Z,101122.03
2023-03-04T06:11:55.603Z,101122.53
2023-03-04T06:14:23.076Z,101106.84
2023-03-04T06:16:50.481Z,101120.88
2023-03-04T06:19:17.804Z,101121.91
2023-03-04T06:21:45.406Z,101122.41
2023-03-04T06:24:12.857Z,101126.69
2023-03-04T06:26:40.222Z,101129.88
2023-03-04T06:29:07.642Z,101122.81
2023-03-04T06:31:35.076Z,101124.41
2023-03-04T06:34:02.517Z,101119.31
2023-03-04T06:36:29.923Z,101125.66
2023-03-04T06:38:57.228Z,101126.56
2023-03-04T06:41:24.614Z,101123.91
2023-03-04T06:43:54.556Z,101125.75
2023-03-04T06:46:22.014Z,101127.28
2023-03-04T06:48:49.358Z,101121.03
2023-03-04T06:51:17.073Z,101132.09
2023-03-04T06:53:44.328Z,101130.31
2023-03-04T06:56:16.083Z,101138.88
2023-03-04T06:58:47.203Z,101133.13
2023-03-04T07:01:14.524Z,101139.59
2023-03-04T07:03:43.058Z,101142.31
2023-03-04T07:06:12.549Z,101135.97
2023-03-04T07:08:40.645Z,101128.78
2023-03-04T07:11:08.210Z,101133.56
2023-03-04T07:13:38.241Z,101125.75
2023-03-04T07:16:07.906Z,101135.72
2023-03-04T07:18:36.438Z,101143.22
2023-03-04T07:21:04.811Z,101139.28
2023-03-04T07:23:32.472Z,101139.78
2023-03-04T07:25:59.869Z,101136.38
2023-03-04T07:28:27.683Z,101138.13
2023-03-04T07:30:55.058Z,101133.28
2023-03-04T07:33:22.341Z,101134.72
2023-03-04T07:35:49.747Z,101137.66
2023-03-04T07:38:17.093Z,101133.56
2023-03-04T07:40:44.437Z,101134.81
2023-03-04T07:43:12.724Z,101136.06
2023-03-04T07:45:42.771Z,101135.25
2023-03-04T07:48:10.169Z,101131.91
2023-03-04T07:50:37.547Z,101128.66
2023-03-04T07:53:04.915Z,101117.84
2023-03-04T07:55:32.371Z,101124.94
2023-03-04T07:58:00.190Z,101122.94
2023-03-04T08:00:27.566Z,101126.22
2023-03-04T08:02:54.898Z,101119.66
2023-03-04T08:05:22.306Z,101119.84
2023-03-04T08:07:51.679Z,101111.91
2023-03-04T08:10:19.050Z,101122.63
2023-03-04T08:12:46.451Z,101113.16
2023-03-04T08:15:13.788Z,101112.13
2023-03-04T08:17:41.113Z,101107.16
2023-03-04T08:20:09.076Z,101106.84
2023-03-04T08:22:36.426Z,101108.75
2023-03-04T08:25:03.988Z,101100.06
2023-03-04T08:27:31.320Z,101102.38
2023-03-04T08:29:58.656Z,101101.47
2023-03-04T08:32:26.136Z,101099.56
2023-03-04T08:34:56.245Z,101094.19
2023-03-04T08:37:23.961Z,101087.84
2023-03-04T08:39:51.213Z,101094.81
2023-03-04T08:42:18.551Z,101096.09
2023-03-04T08:44:45.840Z,101099.19
2023-03-04T08:47:13.262Z,101098.81
2023-03-04T08:49:40.563Z,101090.91
2023-03-04T08:52:08.113Z,101088.94
2023-03-04T08:54:35.429Z,101088.88
2023-03-04T08:57:03.724Z,101088.50
2023-03-04T08:59:31.054Z,101082.06
2023-03-04T09:01:58.419Z,101083.50
2023-03-04T09:04:25.729Z,101075.16
2023-03-04T09:06:54.055Z,101078.59
2023-03-04T09:09:21.415Z,101083.00
2023-03-04T09:11:49.032Z,101075.44
2023-03-04T09:14:16.456Z,101082.59
2023-03-04T09:16:43.878Z,101073.53
2023-03-04T09:19:11.102Z,101081.00
2023-03-04T09:21:38.473Z,101075.50
2023-03-04T09:24:24.386Z,101067.41
2023-03-04T09:26:55.177Z,101073.91
2023-03-04T09:29:22.787Z,101072.72
2023-03-04T09:31:50.738Z,101071.50
2023-03-04T09:34:20.732Z,101070.72
2023-03-04T09:36:48.075Z,101066.34
2023-03-04T09:39:15.496Z,101071.50
2023-03-04T09:41:46.071Z,101057.59
2023-03-04T09:44:16.200Z,101064.00
2023-03-04T09:46:45.123Z,101061.09
2023-03-04T09:49:16.726Z,101065.84
2023-03-04T09:51:46.701Z,101053.75
2023-03-04T09:54:51.983Z,101067.44
2023-03-04T09:57:45.601Z,101059.22
2023-03-04T10:00:19.864Z,101063.19
2023-03-04T10:03:10.320Z,101060.31
2023-03-04T10:06:09.653Z,101059.66
2023-03-04T10:09:02.528Z,101044.41
2023-03-04T10:11:39.872Z,101046.94
2023-03-04T10:14:19.376Z,101048.84
2023-03-04T10:16:52.586Z,101050.50
2023-03-04T10:19:47.305Z,101042.19
2023-03-04T10:22:28.914Z,101045.78
2023-03-04T10:24:58.495Z,101042.88
2023-03-04T10:27:26.580Z,101040.97
2023-03-04T10:29:53.943Z,101040.13
2023-03-04T10:32:21.473Z,101036.78
2023-03-04T10:34:48.869Z,101029.94
2023-03-04T10:37:16.205Z,101032.03
2023-03-04T10:39:47.553Z,101031.09
2023-03-04T10:42:14.908Z,101022.44
2023-03-04T10:44:55.953Z,101024.94
2023-03-04T10:47:25.533Z,101016.28
2023-03-04T10:49:58.744Z,101012.03
2023-03-04T10:52:30.321Z,101000.41
2023-03-04T10:55:02.069Z,101007.09
2023-03-04T10:57:40.032Z,101007.00
2023-03-04T11:00:34.484Z,100991.06
2023-03-04T11:03:27.959Z,100999.94
2023-03-04T11:06:05.481Z,100990.06
2023-03-04T11:08:32.834Z,100988.97
2023-03-04T11:11:00.208Z,100980.66
2023-03-04T11:13:27.650Z,100984.22
2023-03-04T11:16:02.366Z,100984.81
2023-03-04T11:18:43.908Z,100982.53
2023-03-04T11:21:19.601Z,100971.16
2023-03-04T11:23:59.134Z,100969.75
2023-03-04T11:26:29.727Z,100967.16
2023-03-04T11:29:37.184Z,100960.91
2023-03-04T11:32:08.498Z,100961.19
2023-03-04T11:34:56.891Z,100949.63
2023-03-04T11:37:30.512Z,100941.03
2023-03-04T11:40:11.011Z,100946.34
2023-03-04T11:42:51.319Z,100931.59
2023-03-04T11:45:30.215Z,100941.75
2023-03-04T11:48:31.737Z,100939.56
2023-03-04T11:51:20.463Z,100939.16
2023-03-04T11:53:54.564Z,100925.88
2023-03-04T11:56:31.855Z,100921.00
2023-03-04T11:59:23.916Z,100915.03
2023-03-04T12:02:15.024Z,100909.75
2023-03-04T12:04:48.359Z,100900.88
2023-03-04T12:07:36.347Z,100901.78
2023-03-04T12:10:19.488Z,100895.97
2023-03-04T12:12:52.902Z,100889.81
2023-03-04T12:15:24.931Z,100882.94
2023-03-04T12:18:05.117Z,100886.50
2023-03-04T12:20:46.847Z,100872.69
2023-03-04T12:23:35.089Z,100867.97
2023-03-04T12:26:36.594Z,100860.75
2023-03-04T12:29:06.901Z,100859.44
2023-03-04T12:31:41.135Z,100850.94
2023-03-04T12:34:32.818Z,100858.84
2023-03-04T12:37:21.277Z,100851.38
2023-03-04T12:40:16.074Z,100852.28
2023-03-04T12:43:24.350Z,100838.94
2023-03-04T12:46:13.180Z,100843.03
2023-03-04T12:48:59.654Z,100842.03
2023-03-04T12:51:47.418Z,100836.41
2023-03-04T12:54:26.232Z,100832.22
2023-03-04T12:57:02.383Z,100826.78
2023-03-04T12:59:36.842Z,100832.22
2023-03-04T13:02:35.464Z,100820.66
2023-03-04T13:05:24.584Z,100820.88
2023-03-04T13:08:02.426Z,100821.09
2023-03-04T13:10:30.047Z,100814.25
2023-03-04T13:12:59.982Z,100814.41
2023-03-04T13:15:29.697Z,100807.88
2023-03-04T13:17:58.905Z,100813.00
2023-03-04T13:20:38.374Z,100806.53
2023-03-04T13:23:14.753Z,100802.19
2023-03-04T13:25:50.825Z,100790.59
2023-03-04T13:28:26.948Z,100792.47
2023-03-04T13:30:55.773Z,100787.88
2023-03-04T13:33:23.263Z,100793.53
2023-03-04T13:35:58.147Z,100786.75
2023-03-04T13:38:28.515Z,100788.13
2023-03-04T13:41:13.958Z,100784.41
2023-03-04T13:43:49.442Z,100781.13
2023-03-04T13:46:19.865Z,100772.47
2023-03-04T13:48:50.295Z,100768.59
2023-03-04T13:51:43.932Z,100775.53
2023-03-04T13:54:16.664Z,100767.91
2023-03-04T13:56:50.230Z,100770.78
2023-03-04T13:59:32.193Z,100762.84
2023-03-04T14:02:03.970Z,100760.03
2023-03-04T14:04:35.151Z,100771.19
2023-03-04T14:07:18.490Z,100765.00
2023-03-04T14:10:00.840Z,100759.81
2023-03-04T14:12:30.924Z,100764.84
2023-03-04T14:15:02.795Z,100753.03
2023-03-04T14:17:38.790Z,100748.94
2023-03-04T14:20:24.602Z,100748.88
2023-03-04T14:22:51.960Z,100743.72
2023-03-04T14:25:19.262Z,100737.91
2023-03-04T14:27:47.494Z,100735.25
2023-03-04T14:30:39.102Z,100727.44
2023-03-04T14:33:15.930Z,100733.75
2023-03-04T14:35:48.975Z,100723.56
2023-03-04T14:38:24.279Z,100731.84
2023-03-04T14:40:55.990Z,100731.84
2023-03-04T14:43:24.670Z,100716.38
2023-03-04T14:45:55.289Z,100718.53
2023-03-04T14:48:26.767Z,100722.34
2023-03-04T14:50:55.812Z,100716.63
2023-03-04T14:53:26.624Z,100716.44
2023-03-04T14:55:57.869Z,100705.09
2023-03-04T14:58:29.617Z,100700.28
2023-03-04T15:01:07.200Z,100708.25
2023-03-04T15:03:35.949Z,100702.94
2023-03-04T15:06:18.109Z,100695.38
2023-03-04T15:08:46.761Z,100696.22
2023-03-04T15:11:27.128Z,100692.31
2023-03-04T15:13:57.013Z,100690.34
2023-03-04T15:16:28.055Z,100678.34
2023-03-04T15:19:08.622Z,100684.34
2023-03-04T15:21:43.105Z,100680.53
2023-03-04T15:24:11.730Z,100687.38
2023-03-04T15:26:42.589Z,100676.47
2023-03-04T15:29:17.349Z,100679.03
2023-03-04T15:31:48.322Z,100674.75
2023-03-04T15:34:17.665Z,100678.63
2023-03-04T15:36:47.383Z,100680.09
2023-03-04T15:39:16.577Z,100675.88
2023-03-04T15:41:46.585Z,100669.63
2023-03-04T15:44:14.121Z,100675.41
2023-03-04T15:46:41.566Z,100666.88
2023-03-04T15:49:08.908Z,100674.31
2023-03-04T15:51:36.416Z,100681.81
2023-03-04T15:54:04.652Z,100676.56
2023-03-04T15:56:33.902Z,100674.78
2023-03-04T15:59:11.440Z,100667.50
2023-03-04T16:01:38.841Z,100678.00
2023-03-04T16:04:06.534Z,100678.00
2023-03-04T16:06:33.942Z,100674.47
2023-03-04T16:09:01.308Z,100673.72
2023-03-04T16:11:32.761Z,100673.03
2023-03-04T16:14:00.035Z,100673.06
2023-03-04T16:16:27.396Z,100672.00
2023-03-04T16:18:54.687Z,100671.63
2023-03-04T16:21:24.924Z,100672.22
2023-03-04T16:23:54.480Z,100672.22
2023-03-04T16:26:23.626Z,100666.31
2023-03-04T16:28:52.926Z,100669.13
2023-03-04T16:31:22.608Z,100670.38
2023-03-04T16:33:50.187Z,100666.84
2023-03-04T16:36:20.256Z,100678.16
2023-03-04T16:38:47.948Z,100673.16
2023-03-04T16:41:16.946Z,100669.72
2023-03-04T16:43:44.486Z,100671.63
2023-03-04T16:46:14.560Z,100665.25
2023-03-04T16:48:41.921Z,100666.44
2023-03-04T16:51:18.443Z,100656.47
2023-03-04T16:53:54.756Z,100660.19
2023-03-04T16:56:24.988Z,100668.47
2023-03-04T16:58:54.220Z,100669.38
2023-03-04T17:01:21.564Z,100662.91
2023-03-04T17:03:49.077Z,100666.38
2023-03-04T17:06:17.261Z,100656.88
2023-03-04T17:08:47.330Z,100660.66
2023-03-04T17:11:17.875Z,100658.94
2023-03-04T17:13:46.815Z,100661.31
2023-03-04T17:16:15.260Z,100661.91
2023-03-04T17:18:44.221Z,100672.28
2023-03-04T17:21:17.352Z,100667.06
2023-03-04T17:23:44.684Z,100670.59
2023-03-04T17:26:15.662Z,100666.63
2023-03-04T17:28:43.244Z,100670.00
2023-03-04T17:31:16.071Z,100671.22
2023-03-04T17:33:43.937Z,100671.28
2023-03-04T17:36:13.286Z,100685.09
2023-03-04T17:38:40.939Z,100681.69
2023-03-04T17:41:13.375Z,100679.28
2023-03-04T17:43:47.104Z,100675.63
2023-03-04T17:46:16.361Z,100682.94
2023-03-04T17:48:43.794Z,100676.00
2023-03-04T17:51:14.839Z,100681.75
2023-03-04T17:53:42.195Z,100682.22
2023-03-04T17:56:11.625Z,100682.81
2023-03-04T17:58:41.755Z,100688.56
2023-03-04T18:01:19.278Z,100687.00
2023-03-04T18:03:47.045Z,100686.81
2023-03-04T18:06:14.927Z,100691.69
2023-03-04T18:08:42.389Z,100689.47
2023-03-04T18:11:10.365Z,100685.84
2023-03-04T18:13:38.598Z,100694.09
2023-03-04T18:16:06.227Z,100687.69
2023-03-04T18:18:33.606Z,100692.81
2023-03-04T18:21:04.826Z,100698.06
2023-03-04T18:23:32.623Z,100690.38
2023-03-04T18:26:00.338Z,100687.16
2023-03-04T18:28:28.170Z,100696.03
2023-03-04T18:30:55.671Z,100686.56
2023-03-04T18:33:23.453Z,100690.53
2023-03-04T18:35:50.887Z,100692.63
2023-03-04T18:38:18.321Z,100683.50
2023-03-04T18:40:45.681Z,100682.59
2023-03-04T18:43:13.026Z,100692.72
2023-03-04T18:45:40.359Z,100692.09
2023-03-04T18:48:08.219Z,100689.88
2023-03-04T18:50:35.519Z,100687.81
2023-03-04T18:53:05.505Z,100694.81
2023-03-04T18:55:32.786Z,100688.69
2023-03-04T18:58:01.521Z,100686.44
2023-03-04T19:00:29.066Z,100695.44
2023-03-04T19:03:01.503Z,100694.81
2023-03-04T19:05:31.370Z,100694.84
2023-03-04T19:07:59.227Z,100703.34
2023-03-04T19:10:26.887Z,100708.50
2023-03-04T19:12:57.321Z,100709.03
2023-03-04T19:15:25.304Z,100708.25
2023-03-04T19:17:52.834Z,100711.19
2023-03-04T19:20:20.163Z,100706.69
2023-03-04T19:22:47.785Z,100707.66
2023-03-04T19:25:15.248Z,100708.47
2023-03-04T19:27:42.748Z,100708.81
2023-03-04T19:30:10.600Z,100706.38
2023-03-04T19:32:37.997Z,100707.66
2023-03-04T19:35:05.649Z,100699.16
2023-03-04T19:37:33.029Z,100712.66
2023-03-04T19:40:00.275Z,100707.38
2023-03-04T19:42:27.649Z,100707.69
2023-03-04T19:44:55.090Z,100702.72
2023-03-04T19:47:22.478Z,100692.31
2023-03-04T19:49:49.804Z,100703.19
2023-03-04T19:52:17.120Z,100704.31
2023-03-04T19:54:44.405Z,100705.28
2023-03-04T19:57:11.721Z,100710.41
2023-03-04T19:59:39.042Z,100715.69
2023-03-04T20:02:06.585Z,100711.34
2023-03-04T20:04:36.982Z,100711.97
2023-03-04T20:07:04.678Z,100719.31
2023-03-04T20:09:32.187Z,100723.47
2023-03-04T20:11:59.730Z,100718.34
2023-03-04T20:14:27.995Z,100726.63
2023-03-04T20:17:16.576Z,100724.41
2023-03-04T20:19:44.467Z,100727.44
2023-03-04T20:22:13.367Z,100723.91
2023-03-04T20:24:40.633Z,100727.13
2023-03-04T20:27:07.990Z,100724.69
2023-03-04T20:29:35.300Z,100728.66
2023-03-04T20:32:03.690Z,100724.84
2023-03-04T20:34:31.030Z,100722.91
2023-03-04T20:37:00.080Z,100734.41
2023-03-04T20:39:29.956Z,100734.50
2023-03-04T20:41:58.659Z,100739.41
2023-03-04T20:44:26.810Z,100738.09
2023-03-04T20:46:54.333Z,100742.72
2023-03-04T20:49:27.919Z,100741.78
2023-03-04T20:52:06.544Z,100740.34
2023-03-04T20:54:35.869Z,100742.59
2023-03-04T20:57:06.823Z,100741.84
2023-03-04T20:59:35.294Z,100741.94
2023-03-04T21:02:02.674Z,100740.13
2023-03-04T21:04:31.922Z,100747.63
2023-03-04T21:07:03.709Z,100746.66
2023-03-04T21:09:31.220Z,100743.13
2023-03-04T21:12:00.794Z,100737.56
2023-03-04T21:14:30.595Z,100735.63
2023-03-04T21:17:00.567Z,100741.41
2023-03-04T21:19:36.388Z,100740.25
2023-03-04T21:22:04.191Z,100748.94
2023-03-04T21:24:35.254Z,100738.03
2023-03-04T21:27:04.233Z,100746.78
2023-03-04T21:29:31.972Z,100740.72
2023-03-04T21:32:12.953Z,100736.38
2023-03-04T21:34:48.395Z,100739.66
2023-03-04T21:37:15.838Z,100728.41
2023-03-04T21:42:10.541Z,100736.75
2023-03-04T21:44:49.116Z,100729.53
2023-03-04T21:47:16.961Z,100733.69
2023-03-04T21:49:44.359Z,100736.06
2023-03-04T21:52:13.027Z,100729.22
2023-03-04T21:54:40.375Z,100734.16
2023-03-04T21:57:07.735Z,100734.16
2023-03-04T21:59:35.106Z,100722.31
2023-03-04T22:02:02.547Z,100729.34
2023-03-04T22:04:30.058Z,100734.28
2023-03-04T22:06:57.437Z,100731.44
2023-03-04T22:09:25.232Z,100728.38
2023-03-04T22:11:52.544Z,100727.13
2023-03-04T22:14:20.054Z,100729.34
2023-03-04T22:16:54.943Z,100724.34
2023-03-04T22:19:29.900Z,100722.81
2023-03-04T22:21:57.243Z,100721.31
2023-03-04T22:24:26.196Z,100723.38
2023-03-04T22:26:53.660Z,100719.06
2023-03-04T22:29:20.961Z,100723.56
2023-03-04T22:31:48.377Z,100727.72
2023-03-04T22:34:16.566Z,100718.63
2023-03-04T22:36:46.469Z,100721.66
2023-03-04T22:39:19.780Z,100714.00
2023-03-04T22:41:50.302Z,100719.63
2023-03-04T22:44:17.690Z,100717.38
2023-03-04T22:46:45.320Z,100718.19
2023-03-04T22:49:14.036Z,100717.81
2023-03-04T22:51:43.351Z,100716.84
2023-03-04T22:54:15.717Z,100722.63
2023-03-04T22:56:43.776Z,100725.28
2023-03-04T22:59:11.159Z,100723.16
2023-03-04T23:01:38.543Z,100715.63
2023-03-04T23:04:06.041Z,100729.50
2023-03-04T23:06:34.019Z,100715.84
2023-03-04T23:09:02.303Z,100721.78
2023-03-04T23:11:31.889Z,100719.47
2023-03-04T23:14:02.152Z,100720.69
2023-03-04T23:16:29.916Z,100722.50
2023-03-04T23:18:59.448Z,100724.84
2023-03-04T23:21:28.422Z,100729.63
2023-03-04T23:23:56.075Z,100727.53
2023-03-04T23:26:29.412Z,100724.09
2023-03-04T23:28:57.240Z,100723.25
2023-03-04T23:31:25.823Z,100719.31
2023-03-04T23:33:57.216Z,100727.16
2023-03-04T23:36:26.946Z,100731.47
2023-03-04T23:38:54.784Z,100727.03
2023-03-04T23:41:25.507Z,100720.00
2023-03-04T23:43:55.201Z,100723.25
2023-03-04T23:46:23.738Z,100721.59
2023-03-04T23:48:51.096Z,100715.38
2023-03-04T23:51:24.007Z,100726.16
2023-03-04T23:53:51.867Z,100714.00
2023-03-04T23:56:21.981Z,100719.44
2023-03-04T23:58:49.532Z,100716.25
